sensor_id;sensor_type;location;lat;lon;timestamp;temperature;humidity
40323;DHT22;26030;51.164;17.100;2023-04-23T00:03:40;23.00;63.90
40323;DHT22;26030;51.164;17.100;2023-04-23T00:08:45;22.90;63.80
40323;DHT22;26030;51.164;17.100;2023-04-23T00:13:50;22.90;63.90
40323;DHT22;26030;51.164;17.100;2023-04-23T00:18:54;22.90;64.30
40323;DHT22;26030;51.164;17.100;2023-04-23T00:23:59;22.80;64.70
40323;DHT22;26030;51.164;17.100;2023-04-23T00:29:03;22.80;63.90
40323;DHT22;26030;51.164;17.100;2023-04-23T00:34:07;22.80;63.90
40323;DHT22;26030;51.164;17.100;2023-04-23T00:39:12;22.80;64.00
40323;DHT22;26030;51.164;17.100;2023-04-23T00:44:16;22.80;64.20
40323;DHT22;26030;51.164;17.100;2023-04-23T00:49:20;22.80;63.90
40323;DHT22;26030;51.164;17.100;2023-04-23T00:54:26;22.70;63.70
40323;DHT22;26030;51.164;17.100;2023-04-23T00:59:30;22.80;63.80
40323;DHT22;26030;51.164;17.100;2023-04-23T01:04:35;22.80;63.70
40323;DHT22;26030;51.164;17.100;2023-04-23T01:09:42;22.70;63.80
40323;DHT22;26030;51.164;17.100;2023-04-23T01:14:46;22.70;63.30
40323;DHT22;26030;51.164;17.100;2023-04-23T01:19:50;22.70;63.70
40323;DHT22;26030;51.164;17.100;2023-04-23T01:24:54;22.70;63.80
40323;DHT22;26030;51.164;17.100;2023-04-23T01:29:59;22.60;63.80
40323;DHT22;26030;51.164;17.100;2023-04-23T01:35:06;22.60;63.70
40323;DHT22;26030;51.164;17.100;2023-04-23T01:40:10;22.60;63.70
40323;DHT22;26030;51.164;17.100;2023-04-23T01:45:15;22.60;63.60
40323;DHT22;26030;51.164;17.100;2023-04-23T01:50:23;22.60;63.60
40323;DHT22;26030;51.164;17.100;2023-04-23T01:55:28;22.60;63.50
40323;DHT22;26030;51.164;17.100;2023-04-23T02:00:33;22.50;63.90
40323;DHT22;26030;51.164;17.100;2023-04-23T02:05:37;22.50;64.20
40323;DHT22;26030;51.164;17.100;2023-04-23T02:10:44;22.50;63.60
40323;DHT22;26030;51.164;17.100;2023-04-23T02:15:48;22.50;64.00
40323;DHT22;26030;51.164;17.100;2023-04-23T02:20:52;22.50;63.60
40323;DHT22;26030;51.164;17.100;2023-04-23T02:25:56;22.50;63.60
40323;DHT22;26030;51.164;17.100;2023-04-23T02:31:00;22.40;63.90
40323;DHT22;26030;51.164;17.100;2023-04-23T02:36:05;22.40;63.60
40323;DHT22;26030;51.164;17.100;2023-04-23T02:41:10;22.40;63.30
40323;DHT22;26030;51.164;17.100;2023-04-23T02:46:14;22.40;63.50
40323;DHT22;26030;51.164;17.100;2023-04-23T02:51:18;22.40;63.40
40323;DHT22;26030;51.164;17.100;2023-04-23T02:56:23;22.40;63.40
40323;DHT22;26030;51.164;17.100;2023-04-23T03:01:27;22.40;63.60
40323;DHT22;26030;51.164;17.100;2023-04-23T03:06:32;22.40;63.50
40323;DHT22;26030;51.164;17.100;2023-04-23T03:11:38;22.40;63.60
40323;DHT22;26030;51.164;17.100;2023-04-23T03:16:43;22.30;63.40
40323;DHT22;26030;51.164;17.100;2023-04-23T03:21:47;22.30;63.80
40323;DHT22;26030;51.164;17.100;2023-04-23T03:26:52;22.30;63.50
40323;DHT22;26030;51.164;17.100;2023-04-23T03:31:56;22.30;63.60
40323;DHT22;26030;51.164;17.100;2023-04-23T03:37:00;22.20;63.50
40323;DHT22;26030;51.164;17.100;2023-04-23T03:42:07;22.30;63.60
40323;DHT22;26030;51.164;17.100;2023-04-23T03:47:11;22.30;63.60
40323;DHT22;26030;51.164;17.100;2023-04-23T03:52:16;22.20;63.60
40323;DHT22;26030;51.164;17.100;2023-04-23T03:57:20;22.20;63.50
40323;DHT22;26030;51.164;17.100;2023-04-23T04:02:54;22.20;63.50
40323;DHT22;26030;51.164;17.100;2023-04-23T04:08:00;22.20;63.40
40323;DHT22;26030;51.164;17.100;2023-04-23T04:13:05;22.20;63.50
40323;DHT22;26030;51.164;17.100;2023-04-23T04:18:09;22.20;63.50
40323;DHT22;26030;51.164;17.100;2023-04-23T04:23:13;22.10;63.40
40323;DHT22;26030;51.164;17.100;2023-04-23T04:28:17;22.10;63.50
40323;DHT22;26030;51.164;17.100;2023-04-23T04:33:21;22.10;63.60
40323;DHT22;26030;51.164;17.100;2023-04-23T04:38:28;22.10;63.60
40323;DHT22;26030;51.164;17.100;2023-04-23T04:43:32;22.10;63.70
40323;DHT22;26030;51.164;17.100;2023-04-23T04:48:37;22.10;63.90
40323;DHT22;26030;51.164;17.100;2023-04-23T04:53:41;22.10;63.80
40323;DHT22;26030;51.164;17.100;2023-04-23T04:58:45;22.10;63.70
40323;DHT22;26030;51.164;17.100;2023-04-23T05:03:49;22.00;63.70
40323;DHT22;26030;51.164;17.100;2023-04-23T05:08:54;22.00;63.70
40323;DHT22;26030;51.164;17.100;2023-04-23T05:13:58;22.00;63.60
40323;DHT22;26030;51.164;17.100;2023-04-23T05:19:02;22.00;63.40
40323;DHT22;26030;51.164;17.100;2023-04-23T05:24:06;22.10;62.90
40323;DHT22;26030;51.164;17.100;2023-04-23T05:29:10;22.10;63.60
40323;DHT22;26030;51.164;17.100;2023-04-23T05:34:16;22.00;63.40
40323;DHT22;26030;51.164;17.100;2023-04-23T05:39:20;22.00;63.20
40323;DHT22;26030;51.164;17.100;2023-04-23T05:44:24;22.00;63.30
40323;DHT22;26030;51.164;17.100;2023-04-23T05:49:29;22.00;63.80
40323;DHT22;26030;51.164;17.100;2023-04-23T05:54:33;22.00;63.60
40323;DHT22;26030;51.164;17.100;2023-04-23T05:59:39;22.00;63.30
40323;DHT22;26030;51.164;17.100;2023-04-23T06:04:43;22.00;63.20
40323;DHT22;26030;51.164;17.100;2023-04-23T06:09:48;22.00;63.70
40323;DHT22;26030;51.164;17.100;2023-04-23T06:14:53;22.00;63.60
40323;DHT22;26030;51.164;17.100;2023-04-23T06:19:57;22.00;63.50
40323;DHT22;26030;51.164;17.100;2023-04-23T06:25:01;22.00;64.00
40323;DHT22;26030;51.164;17.100;2023-04-23T06:30:06;22.00;63.40
40323;DHT22;26030;51.164;17.100;2023-04-23T06:35:11;22.00;63.40
40323;DHT22;26030;51.164;17.100;2023-04-23T06:40:15;22.00;63.40
40323;DHT22;26030;51.164;17.100;2023-04-23T06:45:20;22.00;63.30
40323;DHT22;26030;51.164;17.100;2023-04-23T06:50:24;22.10;62.90
40323;DHT22;26030;51.164;17.100;2023-04-23T06:55:28;22.10;63.40
40323;DHT22;26030;51.164;17.100;2023-04-23T07:00:32;22.10;62.80
40323;DHT22;26030;51.164;17.100;2023-04-23T07:05:37;22.20;62.80
40323;DHT22;26030;51.164;17.100;2023-04-23T07:10:41;22.20;62.70
40323;DHT22;26030;51.164;17.100;2023-04-23T07:15:46;22.30;62.60
40323;DHT22;26030;51.164;17.100;2023-04-23T07:20:51;22.30;62.50
40323;DHT22;26030;51.164;17.100;2023-04-23T07:25:55;22.30;62.90
40323;DHT22;26030;51.164;17.100;2023-04-23T07:30:59;22.30;63.20
40323;DHT22;26030;51.164;17.100;2023-04-23T07:36:04;22.30;62.60
40323;DHT22;26030;51.164;17.100;2023-04-23T07:41:08;22.40;62.60
40323;DHT22;26030;51.164;17.100;2023-04-23T07:46:12;22.30;63.00
40323;DHT22;26030;51.164;17.100;2023-04-23T07:51:17;22.30;63.00
40323;DHT22;26030;51.164;17.100;2023-04-23T07:56:21;22.30;63.20
40323;DHT22;26030;51.164;17.100;2023-04-23T08:01:27;22.20;63.50
40323;DHT22;26030;51.164;17.100;2023-04-23T08:06:31;22.20;63.60
40323;DHT22;26030;51.164;17.100;2023-04-23T08:11:37;22.20;63.60
40323;DHT22;26030;51.164;17.100;2023-04-23T08:16:42;22.20;63.30
40323;DHT22;26030;51.164;17.100;2023-04-23T08:21:47;22.20;63.60
40323;DHT22;26030;51.164;17.100;2023-04-23T08:26:52;22.30;63.20
40323;DHT22;26030;51.164;17.100;2023-04-23T08:31:56;22.30;63.90
40323;DHT22;26030;51.164;17.100;2023-04-23T08:37:00;22.50;65.50
40323;DHT22;26030;51.164;17.100;2023-04-23T08:42:09;22.50;64.30
40323;DHT22;26030;51.164;17.100;2023-04-23T08:47:16;22.50;64.00
40323;DHT22;26030;51.164;17.100;2023-04-23T08:52:22;22.60;63.70
40323;DHT22;26030;51.164;17.100;2023-04-23T08:57:27;22.60;64.40
40323;DHT22;26030;51.164;17.100;2023-04-23T09:02:34;22.60;65.00
40323;DHT22;26030;51.164;17.100;2023-04-23T09:07:46;22.70;65.00
40323;DHT22;26030;51.164;17.100;2023-04-23T09:12:50;22.80;64.70
40323;DHT22;26030;51.164;17.100;2023-04-23T09:17:55;22.80;64.40
40323;DHT22;26030;51.164;17.100;2023-04-23T09:22:59;22.70;64.10
40323;DHT22;26030;51.164;17.100;2023-04-23T09:28:08;22.70;64.20
40323;DHT22;26030;51.164;17.100;2023-04-23T09:33:15;22.80;64.00
40323;DHT22;26030;51.164;17.100;2023-04-23T09:38:19;22.80;63.80
40323;DHT22;26030;51.164;17.100;2023-04-23T09:43:23;22.90;63.50
40323;DHT22;26030;51.164;17.100;2023-04-23T09:48:40;23.10;62.30
40323;DHT22;26030;51.164;17.100;2023-04-23T09:53:45;23.00;57.20
40323;DHT22;26030;51.164;17.100;2023-04-23T09:58:49;23.00;55.60
40323;DHT22;26030;51.164;17.100;2023-04-23T10:03:53;23.00;54.60
40323;DHT22;26030;51.164;17.100;2023-04-23T10:08:59;23.00;52.80
40323;DHT22;26030;51.164;17.100;2023-04-23T10:14:03;23.00;52.30
40323;DHT22;26030;51.164;17.100;2023-04-23T10:19:08;23.00;50.60
40323;DHT22;26030;51.164;17.100;2023-04-23T10:24:17;23.00;49.50
40323;DHT22;26030;51.164;17.100;2023-04-23T10:29:26;23.00;48.60
40323;DHT22;26030;51.164;17.100;2023-04-23T10:34:32;22.90;48.90
40323;DHT22;26030;51.164;17.100;2023-04-23T10:39:36;22.90;48.70
40323;DHT22;26030;51.164;17.100;2023-04-23T10:44:41;23.00;48.70
40323;DHT22;26030;51.164;17.100;2023-04-23T10:49:48;23.00;50.50
40323;DHT22;26030;51.164;17.100;2023-04-23T10:54:57;23.00;51.80
40323;DHT22;26030;51.164;17.100;2023-04-23T11:00:04;23.10;52.00
40323;DHT22;26030;51.164;17.100;2023-04-23T11:05:09;23.20;52.80
40323;DHT22;26030;51.164;17.100;2023-04-23T11:10:13;23.10;54.10
40323;DHT22;26030;51.164;17.100;2023-04-23T11:15:18;23.10;54.10
40323;DHT22;26030;51.164;17.100;2023-04-23T11:20:22;23.20;55.50
40323;DHT22;26030;51.164;17.100;2023-04-23T11:25:27;23.30;55.00
40323;DHT22;26030;51.164;17.100;2023-04-23T11:30:32;23.30;54.90
40323;DHT22;26030;51.164;17.100;2023-04-23T11:35:36;23.30;55.10
40323;DHT22;26030;51.164;17.100;2023-04-23T11:40:45;23.40;54.80
40323;DHT22;26030;51.164;17.100;2023-04-23T11:45:50;23.60;54.80
40323;DHT22;26030;51.164;17.100;2023-04-23T11:50:55;23.50;54.30
40323;DHT22;26030;51.164;17.100;2023-04-23T11:55:59;23.40;55.00
40323;DHT22;26030;51.164;17.100;2023-04-23T12:01:03;23.30;55.30
40323;DHT22;26030;51.164;17.100;2023-04-23T12:06:07;23.30;55.40
40323;DHT22;26030;51.164;17.100;2023-04-23T12:11:11;23.30;55.50
40323;DHT22;26030;51.164;17.100;2023-04-23T12:16:15;23.20;55.60
40323;DHT22;26030;51.164;17.100;2023-04-23T12:21:19;23.30;55.60
40323;DHT22;26030;51.164;17.100;2023-04-23T12:26:25;23.30;55.80
40323;DHT22;26030;51.164;17.100;2023-04-23T12:31:30;23.30;55.80
40323;DHT22;26030;51.164;17.100;2023-04-23T12:36:37;23.30;56.20
40323;DHT22;26030;51.164;17.100;2023-04-23T12:41:43;23.20;56.50
40323;DHT22;26030;51.164;17.100;2023-04-23T12:46:53;23.30;56.00
40323;DHT22;26030;51.164;17.100;2023-04-23T12:52:02;23.30;55.70
40323;DHT22;26030;51.164;17.100;2023-04-23T12:57:09;23.30;55.50
40323;DHT22;26030;51.164;17.100;2023-04-23T13:02:15;23.40;56.10
40323;DHT22;26030;51.164;17.100;2023-04-23T13:07:19;23.40;55.50
40323;DHT22;26030;51.164;17.100;2023-04-23T13:12:24;23.40;55.70
40323;DHT22;26030;51.164;17.100;2023-04-23T13:17:28;23.30;55.70
40323;DHT22;26030;51.164;17.100;2023-04-23T13:22:33;23.20;55.80
40323;DHT22;26030;51.164;17.100;2023-04-23T13:27:37;23.20;55.90
40323;DHT22;26030;51.164;17.100;2023-04-23T13:32:43;23.20;55.90
40323;DHT22;26030;51.164;17.100;2023-04-23T13:37:47;23.20;56.40
40323;DHT22;26030;51.164;17.100;2023-04-23T13:42:51;23.10;56.70
40323;DHT22;26030;51.164;17.100;2023-04-23T13:47:57;23.10;57.50
40323;DHT22;26030;51.164;17.100;2023-04-23T13:53:07;23.10;57.60
40323;DHT22;26030;51.164;17.100;2023-04-23T13:58:12;23.30;57.50
40323;DHT22;26030;51.164;17.100;2023-04-23T14:03:16;23.30;57.70
40323;DHT22;26030;51.164;17.100;2023-04-23T14:08:23;23.30;57.70
40323;DHT22;26030;51.164;17.100;2023-04-23T14:13:27;23.30;58.50
40323;DHT22;26030;51.164;17.100;2023-04-23T14:18:31;23.30;58.30
40323;DHT22;26030;51.164;17.100;2023-04-23T14:23:43;23.30;59.00
40323;DHT22;26030;51.164;17.100;2023-04-23T14:28:47;23.30;58.50
40323;DHT22;26030;51.164;17.100;2023-04-23T14:33:54;23.30;58.60
40323;DHT22;26030;51.164;17.100;2023-04-23T14:39:01;23.30;58.40
40323;DHT22;26030;51.164;17.100;2023-04-23T14:44:07;23.30;58.80
40323;DHT22;26030;51.164;17.100;2023-04-23T14:49:12;23.40;59.20
40323;DHT22;26030;51.164;17.100;2023-04-23T14:54:16;23.30;58.90
40323;DHT22;26030;51.164;17.100;2023-04-23T14:59:22;23.40;58.80
40323;DHT22;26030;51.164;17.100;2023-04-23T15:04:26;23.40;58.50
40323;DHT22;26030;51.164;17.100;2023-04-23T15:09:30;23.50;58.90
40323;DHT22;26030;51.164;17.100;2023-04-23T15:14:35;23.40;58.70
40323;DHT22;26030;51.164;17.100;2023-04-23T15:19:41;23.30;59.50
40323;DHT22;26030;51.164;17.100;2023-04-23T15:24:45;23.40;60.10
40323;DHT22;26030;51.164;17.100;2023-04-23T15:29:49;23.40;59.60
40323;DHT22;26030;51.164;17.100;2023-04-23T15:34:54;23.40;59.30
40323;DHT22;26030;51.164;17.100;2023-04-23T15:39:58;23.40;61.00
40323;DHT22;26030;51.164;17.100;2023-04-23T15:45:03;23.50;61.20
40323;DHT22;26030;51.164;17.100;2023-04-23T15:50:09;23.60;61.60
40323;DHT22;26030;51.164;17.100;2023-04-23T15:55:17;23.60;61.20
40323;DHT22;26030;51.164;17.100;2023-04-23T16:00:22;23.60;63.30
40323;DHT22;26030;51.164;17.100;2023-04-23T16:05:27;23.60;64.30
40323;DHT22;26030;51.164;17.100;2023-04-23T16:10:32;23.60;64.60
40323;DHT22;26030;51.164;17.100;2023-04-23T16:15:37;23.60;63.60
40323;DHT22;26030;51.164;17.100;2023-04-23T16:20:41;23.60;62.80
40323;DHT22;26030;51.164;17.100;2023-04-23T16:25:46;23.70;62.40
40323;DHT22;26030;51.164;17.100;2023-04-23T16:30:51;23.70;62.30
40323;DHT22;26030;51.164;17.100;2023-04-23T16:35:56;23.60;62.10
40323;DHT22;26030;51.164;17.100;2023-04-23T16:41:03;23.50;63.40
40323;DHT22;26030;51.164;17.100;2023-04-23T16:46:08;23.40;63.50
40323;DHT22;26030;51.164;17.100;2023-04-23T16:51:13;23.50;63.40
40323;DHT22;26030;51.164;17.100;2023-04-23T16:56:19;23.50;63.20
40323;DHT22;26030;51.164;17.100;2023-04-23T17:01:24;23.40;63.70
40323;DHT22;26030;51.164;17.100;2023-04-23T17:06:37;23.50;63.00
40323;DHT22;26030;51.164;17.100;2023-04-23T17:11:43;23.40;62.70
40323;DHT22;26030;51.164;17.100;2023-04-23T17:16:48;23.50;62.50
40323;DHT22;26030;51.164;17.100;2023-04-23T17:21:53;23.50;62.70
40323;DHT22;26030;51.164;17.100;2023-04-23T17:26:59;23.40;62.60
40323;DHT22;26030;51.164;17.100;2023-04-23T17:32:05;23.40;62.60
40323;DHT22;26030;51.164;17.100;2023-04-23T17:37:11;23.40;62.60
40323;DHT22;26030;51.164;17.100;2023-04-23T17:42:16;23.30;62.60
40323;DHT22;26030;51.164;17.100;2023-04-23T17:47:22;23.30;62.60
40323;DHT22;26030;51.164;17.100;2023-04-23T17:52:28;23.40;64.90
40323;DHT22;26030;51.164;17.100;2023-04-23T17:57:36;23.50;65.20
40323;DHT22;26030;51.164;17.100;2023-04-23T18:02:45;23.50;64.30
40323;DHT22;26030;51.164;17.100;2023-04-23T18:07:50;23.40;64.20
40323;DHT22;26030;51.164;17.100;2023-04-23T18:12:55;23.30;63.80
40323;DHT22;26030;51.164;17.100;2023-04-23T18:18:00;23.30;63.60
40323;DHT22;26030;51.164;17.100;2023-04-23T18:23:05;23.40;63.70
40323;DHT22;26030;51.164;17.100;2023-04-23T18:28:11;23.30;63.40
40323;DHT22;26030;51.164;17.100;2023-04-23T18:33:42;23.40;64.10
40323;DHT22;26030;51.164;17.100;2023-04-23T18:38:56;23.40;65.30
40323;DHT22;26030;51.164;17.100;2023-04-23T18:44:08;23.50;64.90
40323;DHT22;26030;51.164;17.100;2023-04-23T18:54:57;23.60;64.10
40323;DHT22;26030;51.164;17.100;2023-04-23T19:00:08;23.90;63.30
40323;DHT22;26030;51.164;17.100;2023-04-23T19:05:17;24.30;61.90
40323;DHT22;26030;51.164;17.100;2023-04-23T19:10:23;24.40;61.10
40323;DHT22;26030;51.164;17.100;2023-04-23T19:15:32;24.50;60.60
40323;DHT22;26030;51.164;17.100;2023-04-23T19:20:37;24.20;61.20
40323;DHT22;26030;51.164;17.100;2023-04-23T19:25:42;23.90;62.20
40323;DHT22;26030;51.164;17.100;2023-04-23T19:30:47;23.90;62.00
40323;DHT22;26030;51.164;17.100;2023-04-23T19:35:53;23.70;62.80
40323;DHT22;26030;51.164;17.100;2023-04-23T19:40:59;23.50;63.40
40323;DHT22;26030;51.164;17.100;2023-04-23T19:46:04;23.50;63.40
40323;DHT22;26030;51.164;17.100;2023-04-23T19:51:10;23.50;63.50
40323;DHT22;26030;51.164;17.100;2023-04-23T19:56:16;23.40;63.40
40323;DHT22;26030;51.164;17.100;2023-04-23T20:01:22;23.50;63.20
40323;DHT22;26030;51.164;17.100;2023-04-23T20:06:28;23.50;63.10
40323;DHT22;26030;51.164;17.100;2023-04-23T20:11:33;23.50;63.00
40323;DHT22;26030;51.164;17.100;2023-04-23T20:16:39;23.50;63.20
40323;DHT22;26030;51.164;17.100;2023-04-23T20:21:47;23.50;63.10
40323;DHT22;26030;51.164;17.100;2023-04-23T20:26:52;23.50;62.70
40323;DHT22;26030;51.164;17.100;2023-04-23T20:31:57;23.40;62.70
40323;DHT22;26030;51.164;17.100;2023-04-23T20:37:02;23.30;62.90
40323;DHT22;26030;51.164;17.100;2023-04-23T20:42:09;23.40;62.80
40323;DHT22;26030;51.164;17.100;2023-04-23T20:47:14;23.30;62.70
40323;DHT22;26030;51.164;17.100;2023-04-23T20:52:19;23.30;62.70
40323;DHT22;26030;51.164;17.100;2023-04-23T20:57:23;23.30;62.50
40323;DHT22;26030;51.164;17.100;2023-04-23T21:02:27;23.30;62.40
40323;DHT22;26030;51.164;17.100;2023-04-23T21:07:31;23.30;68.10
40323;DHT22;26030;51.164;17.100;2023-04-23T21:12:35;23.40;66.40
40323;DHT22;26030;51.164;17.100;2023-04-23T21:17:42;23.40;66.30
40323;DHT22;26030;51.164;17.100;2023-04-23T21:22:46;23.30;65.70
40323;DHT22;26030;51.164;17.100;2023-04-23T21:27:50;23.30;66.30
40323;DHT22;26030;51.164;17.100;2023-04-23T21:32:55;23.40;67.70
40323;DHT22;26030;51.164;17.100;2023-04-23T21:37:59;23.40;67.60
40323;DHT22;26030;51.164;17.100;2023-04-23T21:43:04;23.40;67.70
40323;DHT22;26030;51.164;17.100;2023-04-23T21:48:09;23.40;67.60
40323;DHT22;26030;51.164;17.100;2023-04-23T21:53:13;23.40;68.10
40323;DHT22;26030;51.164;17.100;2023-04-23T21:58:17;23.30;68.10
40323;DHT22;26030;51.164;17.100;2023-04-23T22:03:22;23.30;67.80
40323;DHT22;26030;51.164;17.100;2023-04-23T22:08:41;23.30;68.10
40323;DHT22;26030;51.164;17.100;2023-04-23T22:13:47;23.30;67.50
40323;DHT22;26030;51.164;17.100;2023-04-23T22:18:51;23.30;67.10
40323;DHT22;26030;51.164;17.100;2023-04-23T22:23:56;23.30;67.10
40323;DHT22;26030;51.164;17.100;2023-04-23T22:29:00;23.30;67.40
40323;DHT22;26030;51.164;17.100;2023-04-23T22:34:04;23.30;66.90
40323;DHT22;26030;51.164;17.100;2023-04-23T22:39:09;23.30;67.00
40323;DHT22;26030;51.164;17.100;2023-04-23T22:44:13;23.30;66.70
40323;DHT22;26030;51.164;17.100;2023-04-23T22:49:17;23.40;66.80
40323;DHT22;26030;51.164;17.100;2023-04-23T22:54:21;23.40;66.40
40323;DHT22;26030;51.164;17.100;2023-04-23T22:59:25;23.30;66.30
40323;DHT22;26030;51.164;17.100;2023-04-23T23:04:29;23.30;67.40
40323;DHT22;26030;51.164;17.100;2023-04-23T23:09:33;23.20;67.10
40323;DHT22;26030;51.164;17.100;2023-04-23T23:14:38;23.30;66.60
40323;DHT22;26030;51.164;17.100;2023-04-23T23:19:42;23.20;66.60
40323;DHT22;26030;51.164;17.100;2023-04-23T23:24:46;23.30;66.40
40323;DHT22;26030;51.164;17.100;2023-04-23T23:29:50;23.30;66.20
40323;DHT22;26030;51.164;17.100;2023-04-23T23:34:54;23.30;66.00
40323;DHT22;26030;51.164;17.100;2023-04-23T23:39:59;23.40;66.00
40323;DHT22;26030;51.164;17.100;2023-04-23T23:45:04;23.50;66.10
40323;DHT22;26030;51.164;17.100;2023-04-23T23:50:09;23.60;65.10
40323;DHT22;26030;51.164;17.100;2023-04-23T23:55:13;23.70;64.90
